S/y Far Bay — 2EDV2 — position and weather

sailwx.info

Track history (hours):
 
Tides and Currents Weather Stations Pressure Air Temp Water Temp Dewpoint Dewpoint Depression Visibility Wind Speed Wind Dir Waves Ship Positions

S/y Far Bay

Last reported at 2018-May-25 04:04 UTC. Time now 2018-Jul-20 03:07 UTC.
Position N 39°34' W 072°48'.
Warning: this ship's position is 55 days out of date.

Length 22 m.

Type: Sailing vessel. MMSI: 235084258.

Date/timePositionNaut miles runAvg speedWind from/ knotsBaromVisibWave heightAir tempDewpointWater temp
2018-May-25 04:04N 39°34' W 072°48'1 8.6
2018-May-25 04:00N 39°34' W 072°49'5 8.6
2018-May-25 03:28N 39°30' W 072°52'4 8.6
2018-May-25 03:00N 39°26' W 072°55'  
2018-May-21 17:22N 31°55' W 080°55'4 6.3
2018-May-21 16:44N 31°57' W 080°59'1 5.9
2018-May-21 16:30N 31°58' W 081°00'3 5.8
2018-May-21 15:58N 32°01' W 081°01'2 4.1
2018-May-21 15:27N 32°01' W 081°03'0 0.0
2018-May-21 14:57N 32°01' W 081°03'0 0.0
2018-May-21 14:27N 32°01' W 081°03'0 0.0
2018-May-21 13:57N 32°01' W 081°03'0 0.0
2018-May-21 13:27N 32°01' W 081°03'0 0.0
2018-May-21 12:57N 32°01' W 081°03'0 0.0
2018-May-21 12:27N 32°01' W 081°03'0 0.0
2018-May-21 11:57N 32°01' W 081°03'0 0.0
2018-May-21 11:27N 32°01' W 081°03'0 0.0
2018-May-21 10:51N 32°01' W 081°03'0 0.0
2018-May-21 10:03N 32°01' W 081°03'0 0.0
2018-May-21 09:57N 32°01' W 081°03'0 0.0
2018-May-21 09:27N 32°01' W 081°03'0 0.0
2018-May-21 08:57N 32°01' W 081°03'0 0.0
2018-May-21 08:27N 32°01' W 081°03'0 0.0
2018-May-21 07:57N 32°01' W 081°03'0 0.0
2018-May-21 07:27N 32°01' W 081°03'0 0.0
2018-May-21 06:51N 32°01' W 081°03'0 0.0
2018-May-21 06:27N 32°01' W 081°03'0 0.0
2018-May-21 05:57N 32°01' W 081°03'0 0.0
2018-May-21 05:26N 32°01' W 081°03'0 0.0
2018-May-21 04:57N 32°01' W 081°03'0 0.0
2018-May-21 04:26N 32°01' W 081°03'0 0.0
2018-May-21 03:56N 32°01' W 081°03'0 0.0
2018-May-21 03:26N 32°01' W 081°03'0 0.0
2018-May-21 02:56N 32°01' W 081°03'0 0.0
2018-May-21 02:26N 32°01' W 081°03'0 0.0
2018-May-21 01:50N 32°01' W 081°03'0 0.0
2018-May-21 01:26N 32°01' W 081°03'0 0.0
2018-May-21 00:56N 32°01' W 081°03'0 0.0
2018-May-21 00:26N 32°01' W 081°03'0 0.0
2018-May-20 23:56N 32°01' W 081°03'0 0.0
2018-May-20 23:26N 32°01' W 081°03'0 0.0
2018-May-20 22:56N 32°01' W 081°03'0 0.0
2018-May-20 22:26N 32°01' W 081°03'0 0.0
2018-May-20 21:56N 32°01' W 081°03'0 0.0
2018-May-20 21:26N 32°01' W 081°03'0 0.0
2018-May-20 20:56N 32°01' W 081°03'0 0.0
2018-May-20 20:26N 32°01' W 081°03'0 0.0
2018-May-20 19:56N 32°01' W 081°03'0 0.0
2018-May-20 19:14N 32°01' W 081°03'0 0.0
2018-May-20 18:56N 32°01' W 081°03'0 0.0
2018-May-20 18:26N 32°01' W 081°03'0 0.0
2018-May-20 17:56N 32°01' W 081°03'0 0.0
2018-May-20 17:29N 32°01' W 081°03'0 0.1
2018-May-20 16:57N 32°02' W 081°03'0 0.0
2018-May-20 16:27N 32°02' W 081°03'0 0.1
2018-May-20 15:56N 32°01' W 081°03'0 0.0
2018-May-20 15:26N 32°01' W 081°03'0 0.0
2018-May-20 14:56N 32°01' W 081°03'0 0.0
2018-May-20 14:26N 32°01' W 081°03'0 0.0
2018-May-20 13:49N 32°01' W 081°03'0 0.0
2018-May-20 13:25N 32°01' W 081°03'0 0.0
2018-May-20 12:55N 32°01' W 081°03'0 0.0
2018-May-20 12:19N 32°01' W 081°03'0 0.0
2018-May-20 11:55N 32°01' W 081°03'0 0.0
2018-May-20 11:25N 32°01' W 081°03'0 0.0
2018-May-20 10:55N 32°01' W 081°03'0 0.0
2018-May-20 10:25N 32°01' W 081°03'0 0.0
2018-May-20 09:55N 32°01' W 081°03'0 0.0
2018-May-20 09:25N 32°01' W 081°03'0 0.0
2018-May-20 08:55N 32°01' W 081°03'0 0.0
2018-May-20 08:19N 32°01' W 081°03'0 0.0
2018-May-20 07:49N 32°01' W 081°03'0 0.0
2018-May-20 07:25N 32°01' W 081°03'0 0.0
2018-May-20 06:55N 32°01' W 081°03'0 0.0
2018-May-20 06:25N 32°01' W 081°03'0 0.0
2018-May-20 05:55N 32°01' W 081°03'0 0.0
2018-May-20 05:25N 32°01' W 081°03'0 0.0
2018-May-20 04:55N 32°01' W 081°03'0 0.0
2018-May-20 04:25N 32°01' W 081°03'0 0.0
2018-May-20 03:49N 32°01' W 081°03'0 0.0
2018-May-20 03:25N 32°01' W 081°03'0 0.0
2018-May-20 02:55N 32°01' W 081°03'0 0.0
2018-May-20 02:25N 32°01' W 081°03'0 0.0
2018-May-20 01:55N 32°01' W 081°03'0 0.0
2018-May-20 01:25N 32°01' W 081°03'0 0.0
2018-May-20 00:55N 32°01' W 081°03'0 0.0
2018-May-20 00:25N 32°01' W 081°03'0 0.0
2018-May-19 23:55N 32°01' W 081°03'0 0.0
2018-May-19 23:25N 32°01' W 081°03'0 0.0
2018-May-19 22:55N 32°01' W 081°03'0 0.0
2018-May-19 22:25N 32°01' W 081°03'0 0.0
2018-May-19 21:55N 32°01' W 081°03'0 0.0
2018-May-19 21:25N 32°01' W 081°03'0 0.0
2018-May-19 20:55N 32°01' W 081°03'0 0.0
2018-May-19 20:25N 32°01' W 081°03'0 0.0
2018-May-19 19:55N 32°01' W 081°03'0 0.0
2018-May-19 19:25N 32°01' W 081°03'0 0.0
2018-May-19 18:55N 32°01' W 081°03'0 0.0
2018-May-19 18:25N 32°01' W 081°03'0 0.0
2018-May-19 17:49N 32°01' W 081°03'0 0.0
2018-May-19 17:25N 32°01' W 081°03'0 0.0
2018-May-19 16:55N 32°01' W 081°03'0 0.0
2018-May-19 16:25N 32°01' W 081°03'0 0.0
2018-May-19 15:55N 32°01' W 081°03'0 0.0
2018-May-19 15:25N 32°01' W 081°03'0 0.0
2018-May-19 14:43N 32°01' W 081°03'0 0.0
2018-May-19 14:25N 32°01' W 081°03'0 0.0
2018-May-19 13:55N 32°01' W 081°03'0 0.0
2018-May-19 13:25N 32°01' W 081°03'0 0.0
2018-May-19 12:55N 32°01' W 081°03'0 0.0
2018-May-19 12:25N 32°01' W 081°03'0 0.0
2018-May-19 11:55N 32°01' W 081°03'0 0.0
2018-May-19 11:25N 32°01' W 081°03'0 0.0
2018-May-19 10:55N 32°01' W 081°03'0 0.0
2018-May-19 10:25N 32°01' W 081°03'0 0.0
2018-May-19 09:55N 32°01' W 081°03'0 0.0
2018-May-19 09:19N 32°01' W 081°03'0 0.0
2018-May-19 08:55N 32°01' W 081°03'0 0.0
2018-May-19 08:25N 32°01' W 081°03'0 0.0
2018-May-19 07:55N 32°01' W 081°03'0 0.0
2018-May-19 07:19N 32°01' W 081°03'0 0.0
2018-May-19 06:55N 32°01' W 081°03'0 0.0
2018-May-19 06:25N 32°01' W 081°03'0 0.0
2018-May-19 05:55N 32°01' W 081°03'0 0.0
2018-May-19 05:25N 32°01' W 081°03'0 0.0
2018-May-19 04:55N 32°01' W 081°03'0 0.0
2018-May-19 04:25N 32°01' W 081°03'0 0.0
2018-May-19 03:55N 32°01' W 081°03'0 0.0
2018-May-19 03:25N 32°01' W 081°03'0 0.0
2018-May-19 02:55N 32°01' W 081°03'0 0.0
2018-May-19 02:25N 32°01' W 081°03'0 0.0
2018-May-19 01:55N 32°01' W 081°03'0 0.0
2018-May-19 01:25N 32°01' W 081°03'0 0.0
2018-May-19 00:55N 32°01' W 081°03'0 0.0
2018-May-19 00:25N 32°01' W 081°03'0 0.0
2018-May-18 23:55N 32°01' W 081°03'0 0.0
2018-May-18 23:25N 32°01' W 081°03'0 0.0
2018-May-18 22:55N 32°01' W 081°03'0 0.0
2018-May-18 22:25N 32°01' W 081°03'0 0.0
2018-May-18 21:55N 32°01' W 081°03'0 0.0
2018-May-18 21:25N 32°01' W 081°03'0 0.0
2018-May-18 20:55N 32°01' W 081°03'0 0.0
2018-May-18 20:25N 32°01' W 081°03'0 0.0
2018-May-18 19:55N 32°01' W 081°03'0 0.0
2018-May-18 19:25N 32°01' W 081°03'0 0.0
2018-May-18 18:49N 32°01' W 081°03'0 0.0
2018-May-18 18:25N 32°01' W 081°03'0 0.0
2018-May-18 17:55N 32°01' W 081°03'0 0.0
2018-May-18 17:25N 32°01' W 081°03'0 0.0
2018-May-18 16:55N 32°01' W 081°03'0 0.0
2018-May-18 16:25N 32°01' W 081°03'0 0.0
2018-May-18 15:55N 32°01' W 081°03'  
Track history (hours):
 
Tides and Currents Weather Stations Pressure Air Temp Water Temp Dewpoint Dewpoint Depression Visibility Wind Speed Wind Dir Waves Ship Positions

S/y Far Bay

Last reported at 2018-May-25 04:04 UTC. Time now 2018-Jul-20 03:07 UTC.
Position N 39°34' W 072°48'.
Warning: this ship's position is 55 days out of date.

Length 22 m.

Type: Sailing vessel. MMSI: 235084258.

Date/timePositionNaut miles runAvg speedWind from/ knotsBaromVisibWave heightAir tempDewpointWater temp
2018-May-25 04:04N 39°34' W 072°48'1 8.6
2018-May-25 04:00N 39°34' W 072°49'5 8.6
2018-May-25 03:28N 39°30' W 072°52'4 8.6
2018-May-25 03:00N 39°26' W 072°55'  
2018-May-21 17:22N 31°55' W 080°55'4 6.3
2018-May-21 16:44N 31°57' W 080°59'1 5.9
2018-May-21 16:30N 31°58' W 081°00'3 5.8
2018-May-21 15:58N 32°01' W 081°01'2 4.1
2018-May-21 15:27N 32°01' W 081°03'0 0.0
2018-May-21 14:57N 32°01' W 081°03'0 0.0
2018-May-21 14:27N 32°01' W 081°03'0 0.0
2018-May-21 13:57N 32°01' W 081°03'0 0.0
2018-May-21 13:27N 32°01' W 081°03'0 0.0
2018-May-21 12:57N 32°01' W 081°03'0 0.0
2018-May-21 12:27N 32°01' W 081°03'0 0.0
2018-May-21 11:57N 32°01' W 081°03'0 0.0
2018-May-21 11:27N 32°01' W 081°03'0 0.0
2018-May-21 10:51N 32°01' W 081°03'0 0.0
2018-May-21 10:03N 32°01' W 081°03'0 0.0
2018-May-21 09:57N 32°01' W 081°03'0 0.0
2018-May-21 09:27N 32°01' W 081°03'0 0.0
2018-May-21 08:57N 32°01' W 081°03'0 0.0
2018-May-21 08:27N 32°01' W 081°03'0 0.0
2018-May-21 07:57N 32°01' W 081°03'0 0.0
2018-May-21 07:27N 32°01' W 081°03'0 0.0
2018-May-21 06:51N 32°01' W 081°03'0 0.0
2018-May-21 06:27N 32°01' W 081°03'0 0.0
2018-May-21 05:57N 32°01' W 081°03'0 0.0
2018-May-21 05:26N 32°01' W 081°03'0 0.0
2018-May-21 04:57N 32°01' W 081°03'0 0.0
2018-May-21 04:26N 32°01' W 081°03'0 0.0
2018-May-21 03:56N 32°01' W 081°03'0 0.0
2018-May-21 03:26N 32°01' W 081°03'0 0.0
2018-May-21 02:56N 32°01' W 081°03'0 0.0
2018-May-21 02:26N 32°01' W 081°03'0 0.0
2018-May-21 01:50N 32°01' W 081°03'0 0.0
2018-May-21 01:26N 32°01' W 081°03'0 0.0
2018-May-21 00:56N 32°01' W 081°03'0 0.0
2018-May-21 00:26N 32°01' W 081°03'0 0.0
2018-May-20 23:56N 32°01' W 081°03'0 0.0
2018-May-20 23:26N 32°01' W 081°03'0 0.0
2018-May-20 22:56N 32°01' W 081°03'0 0.0
2018-May-20 22:26N 32°01' W 081°03'0 0.0
2018-May-20 21:56N 32°01' W 081°03'0 0.0
2018-May-20 21:26N 32°01' W 081°03'0 0.0
2018-May-20 20:56N 32°01' W 081°03'0 0.0
2018-May-20 20:26N 32°01' W 081°03'0 0.0
2018-May-20 19:56N 32°01' W 081°03'0 0.0
2018-May-20 19:14N 32°01' W 081°03'0 0.0
2018-May-20 18:56N 32°01' W 081°03'0 0.0
2018-May-20 18:26N 32°01' W 081°03'0 0.0
2018-May-20 17:56N 32°01' W 081°03'0 0.0
2018-May-20 17:29N 32°01' W 081°03'0 0.1
2018-May-20 16:57N 32°02' W 081°03'0 0.0
2018-May-20 16:27N 32°02' W 081°03'0 0.1
2018-May-20 15:56N 32°01' W 081°03'0 0.0
2018-May-20 15:26N 32°01' W 081°03'0 0.0
2018-May-20 14:56N 32°01' W 081°03'0 0.0
2018-May-20 14:26N 32°01' W 081°03'0 0.0
2018-May-20 13:49N 32°01' W 081°03'0 0.0
2018-May-20 13:25N 32°01' W 081°03'0 0.0
2018-May-20 12:55N 32°01' W 081°03'0 0.0
2018-May-20 12:19N 32°01' W 081°03'0 0.0
2018-May-20 11:55N 32°01' W 081°03'0 0.0
2018-May-20 11:25N 32°01' W 081°03'0 0.0
2018-May-20 10:55N 32°01' W 081°03'0 0.0
2018-May-20 10:25N 32°01' W 081°03'0 0.0
2018-May-20 09:55N 32°01' W 081°03'0 0.0
2018-May-20 09:25N 32°01' W 081°03'0 0.0
2018-May-20 08:55N 32°01' W 081°03'0 0.0
2018-May-20 08:19N 32°01' W 081°03'0 0.0
2018-May-20 07:49N 32°01' W 081°03'0 0.0
2018-May-20 07:25N 32°01' W 081°03'0 0.0
2018-May-20 06:55N 32°01' W 081°03'0 0.0
2018-May-20 06:25N 32°01' W 081°03'0 0.0
2018-May-20 05:55N 32°01' W 081°03'0 0.0
2018-May-20 05:25N 32°01' W 081°03'0 0.0
2018-May-20 04:55N 32°01' W 081°03'0 0.0
2018-May-20 04:25N 32°01' W 081°03'0 0.0
2018-May-20 03:49N 32°01' W 081°03'0 0.0
2018-May-20 03:25N 32°01' W 081°03'0 0.0
2018-May-20 02:55N 32°01' W 081°03'0 0.0
2018-May-20 02:25N 32°01' W 081°03'0 0.0
2018-May-20 01:55N 32°01' W 081°03'0 0.0
2018-May-20 01:25N 32°01' W 081°03'0 0.0
2018-May-20 00:55N 32°01' W 081°03'0 0.0
2018-May-20 00:25N 32°01' W 081°03'0 0.0
2018-May-19 23:55N 32°01' W 081°03'0 0.0
2018-May-19 23:25N 32°01' W 081°03'0 0.0
2018-May-19 22:55N 32°01' W 081°03'0 0.0
2018-May-19 22:25N 32°01' W 081°03'0 0.0
2018-May-19 21:55N 32°01' W 081°03'0 0.0
2018-May-19 21:25N 32°01' W 081°03'0 0.0
2018-May-19 20:55N 32°01' W 081°03'0 0.0
2018-May-19 20:25N 32°01' W 081°03'0 0.0
2018-May-19 19:55N 32°01' W 081°03'0 0.0
2018-May-19 19:25N 32°01' W 081°03'0 0.0
2018-May-19 18:55N 32°01' W 081°03'0 0.0
2018-May-19 18:25N 32°01' W 081°03'0 0.0
2018-May-19 17:49N 32°01' W 081°03'0 0.0
2018-May-19 17:25N 32°01' W 081°03'0 0.0
2018-May-19 16:55N 32°01' W 081°03'0 0.0
2018-May-19 16:25N 32°01' W 081°03'0 0.0
2018-May-19 15:55N 32°01' W 081°03'0 0.0
2018-May-19 15:25N 32°01' W 081°03'0 0.0
2018-May-19 14:43N 32°01' W 081°03'0 0.0
2018-May-19 14:25N 32°01' W 081°03'0 0.0
2018-May-19 13:55N 32°01' W 081°03'0 0.0
2018-May-19 13:25N 32°01' W 081°03'0 0.0
2018-May-19 12:55N 32°01' W 081°03'0 0.0
2018-May-19 12:25N 32°01' W 081°03'0 0.0
2018-May-19 11:55N 32°01' W 081°03'0 0.0
2018-May-19 11:25N 32°01' W 081°03'0 0.0
2018-May-19 10:55N 32°01' W 081°03'0 0.0
2018-May-19 10:25N 32°01' W 081°03'0 0.0
2018-May-19 09:55N 32°01' W 081°03'0 0.0
2018-May-19 09:19N 32°01' W 081°03'0 0.0
2018-May-19 08:55N 32°01' W 081°03'0 0.0
2018-May-19 08:25N 32°01' W 081°03'0 0.0
2018-May-19 07:55N 32°01' W 081°03'0 0.0
2018-May-19 07:19N 32°01' W 081°03'0 0.0
2018-May-19 06:55N 32°01' W 081°03'0 0.0
2018-May-19 06:25N 32°01' W 081°03'0 0.0
2018-May-19 05:55N 32°01' W 081°03'0 0.0
2018-May-19 05:25N 32°01' W 081°03'0 0.0
2018-May-19 04:55N 32°01' W 081°03'0 0.0
2018-May-19 04:25N 32°01' W 081°03'0 0.0
2018-May-19 03:55N 32°01' W 081°03'0 0.0
2018-May-19 03:25N 32°01' W 081°03'0 0.0
2018-May-19 02:55N 32°01' W 081°03'0 0.0
2018-May-19 02:25N 32°01' W 081°03'0 0.0
2018-May-19 01:55N 32°01' W 081°03'0 0.0
2018-May-19 01:25N 32°01' W 081°03'0 0.0
2018-May-19 00:55N 32°01' W 081°03'0 0.0
2018-May-19 00:25N 32°01' W 081°03'0 0.0
2018-May-18 23:55N 32°01' W 081°03'0 0.0
2018-May-18 23:25N 32°01' W 081°03'0 0.0
2018-May-18 22:55N 32°01' W 081°03'0 0.0
2018-May-18 22:25N 32°01' W 081°03'0 0.0
2018-May-18 21:55N 32°01' W 081°03'0 0.0
2018-May-18 21:25N 32°01' W 081°03'0 0.0
2018-May-18 20:55N 32°01' W 081°03'0 0.0
2018-May-18 20:25N 32°01' W 081°03'0 0.0
2018-May-18 19:55N 32°01' W 081°03'0 0.0
2018-May-18 19:25N 32°01' W 081°03'0 0.0
2018-May-18 18:49N 32°01' W 081°03'0 0.0
2018-May-18 18:25N 32°01' W 081°03'0 0.0
2018-May-18 17:55N 32°01' W 081°03'0 0.0
2018-May-18 17:25N 32°01' W 081°03'0 0.0
2018-May-18 16:55N 32°01' W 081°03'0 0.0
2018-May-18 16:25N 32°01' W 081°03'0 0.0
2018-May-18 15:55N 32°01' W 081°03'  

Dump ship's entire track history